Time;durP1;ratioP1;P1;durP2;ratioP2;P2;SDS_P1;SDS_P2;PMS_P1;PMS_P2;Temp;Humidity;BMP_temperature;BMP_pressure;BME280_temperature;BME280_humidity;BME280_pressure;Samples;Min_cycle;Max_cycle;Signal;HPM_P1;HPM_P2
2022/08/18 00:02:24;;;;;;;10.15;6.10;;;18.10;99.90;;;;;;5073502;28;20494;-71
2022/08/18 00:04:51;;;;;;;13.70;7.43;;;18.20;99.90;;;;;;5073409;28;20052;-72
2022/08/18 00:07:36;;;;;;;12.27;7.03;;;18.10;99.90;;;;;;5072555;28;20052;-72
2022/08/18 00:10:04;;;;;;;14.70;7.25;;;18.20;99.90;;;;;;5073531;28;20139;-71
2022/08/18 00:12:42;;;;;;;12.13;7.47;;;18.20;99.90;;;;;;5072831;28;20380;-72
2022/08/18 00:15:11;;;;;;;15.35;7.50;;;19.20;99.90;;;;;;5072770;28;20102;-71
2022/08/18 00:17:37;;;;;;;14.63;7.68;;;18.20;99.90;;;;;;5073944;28;20097;-72
2022/08/18 00:20:06;;;;;;;13.48;6.70;;;18.20;99.90;;;;;;5073073;28;20131;-71
2022/08/18 00:22:32;;;;;;;16.15;6.88;;;18.20;99.90;;;;;;5073373;28;20477;-70
2022/08/18 00:24:57;;;;;;;17.98;7.18;;;18.20;99.90;;;;;;5073428;28;20048;-70
2022/08/18 00:27:26;;;;;;;15.18;7.07;;;18.40;99.90;;;;;;5072359;28;20048;-71
2022/08/18 00:29:53;;;;;;;15.15;6.85;;;18.30;99.90;;;;;;5073310;28;20048;-71
2022/08/18 00:32:23;;;;;;;16.95;7.22;;;18.30;99.90;;;;;;5076777;28;20048;-71
2022/08/18 00:34:48;;;;;;;18.67;8.02;;;18.20;99.90;;;;;;5076385;28;20087;-73
2022/08/18 00:37:14;;;;;;;18.00;7.68;;;18.30;99.90;;;;;;5076035;28;20083;-72
2022/08/18 00:39:40;;;;;;;17.25;6.90;;;18.30;99.90;;;;;;5076960;28;20047;-72
2022/08/18 00:42:30;;;;;;;12.95;7.25;;;18.30;99.90;;;;;;5077492;28;20048;-73
2022/08/18 00:44:58;;;;;;;16.85;7.25;;;18.30;99.90;;;;;;5070801;28;20394;-73
2022/08/18 00:47:27;;;;;;;18.13;7.10;;;18.30;99.90;;;;;;5077139;28;20053;-72
2022/08/18 00:49:53;;;;;;;19.10;7.40;;;18.30;99.90;;;;;;5058689;28;20037;-73
2022/08/18 00:52:21;;;;;;;21.63;7.60;;;18.20;99.90;;;;;;5075842;28;20063;-73
2022/08/18 00:54:48;;;;;;;16.25;7.03;;;18.20;99.90;;;;;;5076780;28;20052;-72
2022/08/18 00:57:17;;;;;;;18.67;6.88;;;18.20;99.90;;;;;;5076846;28;20048;-72
2022/08/18 01:00:01;;;;;;;17.88;7.72;;;18.20;99.90;;;;;;5077112;28;20058;-72
2022/08/18 01:02:31;;;;;;;16.02;6.82;;;18.10;99.90;;;;;;5076824;28;20041;-73
2022/08/18 01:05:21;;;;;;;18.30;6.90;;;18.10;99.90;;;;;;5077159;28;20052;-72
2022/08/18 01:07:48;;;;;;;21.58;6.72;;;18.10;99.90;;;;;;5076428;28;20048;-72
2022/08/18 01:10:16;;;;;;;17.65;6.57;;;18.10;99.90;;;;;;5075668;28;20124;-72
2022/08/18 01:12:47;;;;;;;15.10;7.00;;;18.10;99.90;;;;;;5075782;28;20052;-72
2022/08/18 01:15:15;;;;;;;18.52;7.30;;;18.10;99.90;;;;;;5075332;28;20459;-72
2022/08/18 01:23:22;;;;;;;15.05;6.63;;;18.10;99.90;;;;;;5075720;28;20442;-71
2022/08/18 01:26:03;;;;;;;17.20;7.75;;;18.00;99.90;;;;;;5076331;28;20048;-73
2022/08/18 01:28:41;;;;;;;20.15;7.07;;;18.00;99.90;;;;;;5076863;28;20041;-73
2022/08/18 01:31:09;;;;;;;12.38;6.80;;;18.00;99.90;;;;;;5075966;28;20472;-73
2022/08/18 01:33:44;;;;;;;11.88;6.40;;;18.00;99.90;;;;;;5077051;28;20048;-72
2022/08/18 01:36:19;;;;;;;20.92;7.88;;;18.10;99.90;;;;;;5075486;28;20048;-72
2022/08/18 01:38:49;;;;;;;12.05;7.05;;;18.00;99.90;;;;;;5076153;28;20052;-72
2022/08/18 01:41:15;;;;;;;12.95;6.80;;;18.00;99.90;;;;;;5076915;28;20429;-72
2022/08/18 01:43:41;;;;;;;17.77;8.30;;;18.00;99.90;;;;;;5075151;28;20496;-73
2022/08/18 01:46:07;;;;;;;17.15;7.45;;;18.00;99.90;;;;;;5075855;28;20110;-73
2022/08/18 01:48:35;;;;;;;13.98;7.70;;;18.00;99.90;;;;;;5075549;28;20037;-73
2022/08/18 01:51:03;;;;;;;17.63;8.38;;;18.10;99.90;;;;;;5076057;28;20080;-72
2022/08/18 01:53:29;;;;;;;17.85;8.70;;;17.90;99.90;;;;;;5075953;28;20051;-73
2022/08/18 01:55:55;;;;;;;15.93;9.77;;;18.00;99.90;;;;;;5076517;28;20053;-73
2022/08/18 01:58:26;;;;;;;19.08;8.32;;;18.00;99.90;;;;;;5075518;28;20098;-73
2022/08/18 02:00:56;;;;;;;17.88;8.73;;;18.00;99.90;;;;;;5075243;28;20052;-72
2022/08/18 02:03:25;;;;;;;16.52;8.25;;;18.00;99.90;;;;;;5075433;28;20492;-73
2022/08/18 02:05:57;;;;;;;17.05;8.40;;;18.00;99.90;;;;;;5076084;28;20469;-73
2022/08/18 02:08:22;;;;;;;17.00;7.72;;;18.00;99.90;;;;;;5075506;28;20084;-73
2022/08/18 02:10:48;;;;;;;20.90;8.15;;;18.10;99.90;;;;;;5075522;28;20084;-73
2022/08/18 02:13:14;;;;;;;19.10;7.97;;;18.00;99.90;;;;;;5074303;28;20045;-73
2022/08/18 02:15:41;;;;;;;18.63;7.97;;;18.00;99.90;;;;;;5075384;28;20048;-74
2022/08/18 02:18:13;;;;;;;20.77;8.23;;;18.10;99.90;;;;;;5075142;28;20170;-73
2022/08/18 02:20:38;;;;;;;16.17;7.20;;;18.10;99.90;;;;;;5075400;28;20056;-73
2022/08/18 02:23:04;;;;;;;14.55;7.32;;;18.00;99.90;;;;;;5075095;28;20052;-73
2022/08/18 02:25:29;;;;;;;19.45;8.63;;;18.10;99.90;;;;;;5073804;28;20044;-73
2022/08/18 02:27:55;;;;;;;18.15;8.43;;;18.10;99.90;;;;;;5075143;28;20049;-73
2022/08/18 02:30:21;;;;;;;18.55;7.22;;;18.10;99.90;;;;;;5073922;28;20533;-73
2022/08/18 02:32:47;;;;;;;17.25;7.03;;;18.00;99.90;;;;;;5075657;28;20071;-72
2022/08/18 02:35:13;;;;;;;18.77;7.47;;;18.10;99.90;;;;;;5075370;28;20512;-73
2022/08/18 02:37:40;;;;;;;20.17;8.00;;;18.20;99.90;;;;;;5074903;28;20127;-72
2022/08/18 02:40:06;;;;;;;20.88;7.82;;;18.10;99.90;;;;;;5074922;28;20048;-72
2022/08/18 02:42:32;;;;;;;12.77;7.45;;;18.00;99.90;;;;;;5074803;28;20051;-72
2022/08/18 02:44:58;;;;;;;21.25;8.02;;;18.10;99.90;;;;;;5074767;28;20041;-72
2022/08/18 02:47:24;;;;;;;15.20;8.52;;;18.00;99.90;;;;;;5075057;28;20109;-72
2022/08/18 02:49:49;;;;;;;19.08;8.48;;;18.10;99.90;;;;;;5074146;28;20041;-73
2022/08/18 02:52:16;;;;;;;19.35;8.75;;;18.00;99.90;;;;;;5074649;28;20477;-73
2022/08/18 02:54:42;;;;;;;24.25;8.90;;;18.10;99.90;;;;;;5072662;28;20105;-73
2022/08/18 02:57:10;;;;;;;14.95;9.30;;;18.20;99.90;;;;;;5074523;28;20059;-72
2022/08/18 02:59:37;;;;;;;20.80;9.35;;;18.10;99.90;;;;;;5073564;28;20083;-73
2022/08/18 03:02:06;;;;;;;17.25;8.30;;;18.20;99.90;;;;;;5074441;28;20044;-73
2022/08/18 03:04:33;;;;;;;17.58;9.40;;;18.10;99.90;;;;;;5074473;28;20060;-72
2022/08/18 03:07:02;;;;;;;23.63;9.32;;;18.20;99.90;;;;;;5075236;28;20051;-73
2022/08/18 03:09:29;;;;;;;18.48;8.52;;;18.20;99.90;;;;;;5073141;28;20040;-72
2022/08/18 03:11:55;;;;;;;20.13;8.73;;;18.20;99.90;;;;;;5074405;28;20127;-72
2022/08/18 03:14:21;;;;;;;22.73;9.15;;;18.20;99.90;;;;;;5073959;28;20602;-73
2022/08/18 03:16:48;;;;;;;22.80;8.43;;;18.30;99.90;;;;;;5073550;28;20044;-74
2022/08/18 03:19:15;;;;;;;17.55;8.35;;;18.20;99.90;;;;;;5073951;28;20436;-73
2022/08/18 03:21:45;;;;;;;16.67;7.95;;;18.20;99.90;;;;;;5074179;28;20041;-71
2022/08/18 03:24:11;;;;;;;16.77;8.32;;;18.30;99.90;;;;;;5073167;28;20396;-72
2022/08/18 03:26:41;;;;;;;17.20;8.18;;;18.20;99.90;;;;;;5074048;28;20547;-72
2022/08/18 03:29:08;;;;;;;15.23;7.78;;;18.30;99.90;;;;;;5073664;28;20068;-73
2022/08/18 03:31:36;;;;;;;15.80;8.27;;;18.20;99.90;;;;;;5073976;28;20045;-73
2022/08/18 03:34:03;;;;;;;18.60;7.80;;;18.20;99.90;;;;;;5072923;28;20131;-72
2022/08/18 03:36:32;;;;;;;15.32;7.35;;;18.20;99.90;;;;;;5073640;28;20535;-73
2022/08/18 03:39:03;;;;;;;17.27;6.97;;;18.30;99.90;;;;;;5073892;28;20048;-73
2022/08/18 03:41:29;;;;;;;18.65;7.70;;;18.30;99.90;;;;;;5073918;28;20051;-73
2022/08/18 03:43:54;;;;;;;16.92;7.35;;;18.30;99.90;;;;;;5073847;28;20045;-72
2022/08/18 03:46:21;;;;;;;20.92;8.70;;;18.20;99.90;;;;;;5072606;28;20052;-73
2022/08/18 03:48:48;;;;;;;15.73;7.45;;;18.20;99.90;;;;;;5072526;28;20127;-73
2022/08/18 03:51:20;;;;;;;17.08;7.78;;;18.20;99.90;;;;;;5072754;28;20048;-72
2022/08/18 03:53:48;;;;;;;16.42;7.95;;;18.30;99.90;;;;;;5073188;28;20055;-74
2022/08/18 03:56:16;;;;;;;20.20;8.35;;;18.20;99.90;;;;;;5073707;28;20051;-74
2022/08/18 03:58:45;;;;;;;16.98;8.02;;;18.30;99.90;;;;;;5072466;28;20044;-72
2022/08/18 04:01:16;;;;;;;13.15;7.20;;;18.30;99.90;;;;;;5072647;28;20041;-73
2022/08/18 04:03:43;;;;;;;19.38;7.15;;;18.20;99.90;;;;;;5072663;28;20049;-73
2022/08/18 04:06:24;;;;;;;17.80;7.75;;;18.20;99.90;;;;;;5072675;28;20053;-74
2022/08/18 04:08:57;;;;;;;17.63;7.22;;;18.20;99.90;;;;;;5071989;28;20485;-74
2022/08/18 04:11:24;;;;;;;15.73;7.20;;;18.30;99.90;;;;;;5074436;28;20080;-74
2022/08/18 04:13:50;;;;;;;16.10;7.32;;;18.20;99.90;;;;;;5073526;28;20054;-73
2022/08/18 04:16:16;;;;;;;13.02;6.93;;;18.20;99.90;;;;;;5073748;28;20045;-75
2022/08/18 04:18:42;;;;;;;15.68;7.03;;;18.30;99.90;;;;;;5073386;28;20453;-74
2022/08/18 04:21:10;;;;;;;21.38;7.18;;;18.20;99.90;;;;;;5072447;28;20136;-74
2022/08/18 04:23:39;;;;;;;14.35;6.68;;;18.30;99.90;;;;;;5073371;28;20468;-72
2022/08/18 04:26:07;;;;;;;21.08;6.60;;;18.20;99.90;;;;;;5074131;28;20133;-74
2022/08/18 04:28:33;;;;;;;15.90;6.43;;;18.30;99.90;;;;;;5072673;28;20144;-73
2022/08/18 04:31:05;;;;;;;14.80;7.03;;;18.20;99.90;;;;;;5073341;28;20131;-73
2022/08/18 04:33:31;;;;;;;14.98;6.97;;;18.20;99.90;;;;;;5056482;28;20045;-74
2022/08/18 04:35:57;;;;;;;14.43;6.97;;;18.20;99.90;;;;;;5072097;28;20090;-74
2022/08/18 04:38:23;;;;;;;14.30;6.43;;;18.30;99.90;;;;;;5073881;28;20047;-74
2022/08/18 04:40:49;;;;;;;12.77;6.38;;;18.20;99.90;;;;;;5073346;28;20067;-74
2022/08/18 04:43:15;;;;;;;11.98;6.50;;;18.30;99.90;;;;;;5073339;28;20055;-74
2022/08/18 04:45:43;;;;;;;12.88;5.88;;;18.20;99.90;;;;;;5073603;28;20397;-74
2022/08/18 04:48:09;;;;;;;11.63;6.15;;;18.30;99.90;;;;;;5073217;28;20037;-74
2022/08/18 04:50:37;;;;;;;18.08;6.57;;;18.30;99.90;;;;;;5073013;28;20070;-74
2022/08/18 04:55:53;;;;;;;15.43;6.22;;;18.30;99.90;;;;;;5073122;28;20143;-74
2022/08/18 04:58:23;;;;;;;15.40;6.38;;;18.30;99.90;;;;;;5072619;28;20094;-74
2022/08/18 05:01:00;;;;;;;11.25;5.50;;;18.40;99.90;;;;;;5073817;28;20063;-74
2022/08/18 05:03:26;;;;;;;15.52;6.40;;;18.30;99.90;;;;;;5073181;28;20052;-74
2022/08/18 05:05:53;;;;;;;14.93;6.80;;;18.30;99.90;;;;;;5072546;28;20049;-75
2022/08/18 05:08:21;;;;;;;15.95;6.35;;;18.30;99.90;;;;;;5071756;28;20044;-74
2022/08/18 05:10:52;;;;;;;14.02;6.22;;;18.20;99.90;;;;;;5072279;28;20048;-75
2022/08/18 05:13:18;;;;;;;13.07;5.82;;;18.20;99.90;;;;;;5073544;28;20037;-75
2022/08/18 05:15:43;;;;;;;11.02;5.70;;;18.40;99.90;;;;;;5072888;28;20063;-75
2022/08/18 05:18:10;;;;;;;11.73;5.43;;;18.40;99.90;;;;;;5073090;28;20045;-74
2022/08/18 05:20:39;;;;;;;11.18;5.85;;;18.40;99.90;;;;;;5076008;28;20098;-74
2022/08/18 05:23:05;;;;;;;10.23;5.50;;;18.30;99.90;;;;;;5075797;28;20080;-74
2022/08/18 05:25:30;;;;;;;12.32;5.57;;;18.30;99.90;;;;;;5077200;28;20041;-73
2022/08/18 05:27:56;;;;;;;14.77;6.18;;;18.40;99.90;;;;;;5077025;28;20052;-74
2022/08/18 05:30:22;;;;;;;9.75;5.90;;;18.40;99.90;;;;;;5076570;28;20044;-74
2022/08/18 05:32:47;;;;;;;9.85;6.05;;;18.40;99.90;;;;;;5075586;28;20136;-74
2022/08/18 05:35:25;;;;;;;12.85;6.10;;;18.40;99.90;;;;;;5075340;28;20044;-74
2022/08/18 05:37:58;;;;;;;12.25;5.93;;;18.30;99.90;;;;;;5076086;28;20052;-73
2022/08/18 05:40:24;;;;;;;9.98;5.70;;;18.30;99.90;;;;;;5077021;28;20082;-74
2022/08/18 05:42:51;;;;;;;16.40;6.45;;;18.40;99.90;;;;;;5075768;28;20041;-74
2022/08/18 05:45:18;;;;;;;13.07;6.15;;;18.40;99.90;;;;;;5077101;28;20151;-74
2022/08/18 05:47:44;;;;;;;11.95;6.18;;;18.30;99.90;;;;;;5075897;28;20080;-75
2022/08/18 05:50:17;;;;;;;15.45;6.43;;;18.50;99.90;;;;;;5074604;28;20084;-75
2022/08/18 05:52:54;;;;;;;;;;;18.40;99.90;;;;;;5059588;28;20087;-75
2022/08/18 05:58:42;;;;;;;14.10;6.70;;;18.50;99.90;;;;;;5075659;28;20075;-73
2022/08/18 06:01:15;;;;;;;10.20;7.03;;;18.50;99.90;;;;;;5074813;28;20054;-75
2022/08/18 06:03:54;;;;;;;14.18;6.45;;;18.50;99.90;;;;;;5075349;28;20487;-74
2022/08/18 06:06:24;;;;;;;9.68;6.15;;;18.50;99.90;;;;;;5076378;28;20064;-75
2022/08/18 06:09:04;;;;;;;12.75;6.20;;;18.60;99.90;;;;;;5075593;28;20486;-75
2022/08/18 06:11:30;;;;;;;11.43;6.07;;;18.60;99.90;;;;;;5074547;28;20044;-74
2022/08/18 06:13:56;;;;;;;13.13;7.07;;;18.60;99.90;;;;;;5074521;28;20049;-75
2022/08/18 06:16:47;;;;;;;12.95;6.53;;;18.60;99.90;;;;;;5075412;28;20440;-75
2022/08/18 06:19:34;;;;;;;11.30;7.00;;;18.60;99.90;;;;;;5074633;28;20492;-75
2022/08/18 06:22:27;;;;;;;12.65;6.22;;;18.60;99.90;;;;;;5075219;28;20048;-75
2022/08/18 06:25:24;;;;;;;16.90;6.82;;;18.70;99.90;;;;;;5075617;28;20370;-75
2022/08/18 06:28:06;;;;;;;10.32;6.28;;;18.70;99.90;;;;;;5071899;28;20065;-75
2022/08/18 06:30:40;;;;;;;14.63;7.13;;;18.80;99.90;;;;;;5075321;28;20076;-75
2022/08/18 06:33:12;;;;;;;18.48;6.45;;;18.70;99.90;;;;;;5074825;28;20063;-74
2022/08/18 06:35:44;;;;;;;16.08;6.63;;;18.80;99.90;;;;;;5057753;28;20053;-75
2022/08/18 06:38:37;;;;;;;11.30;6.50;;;18.80;99.90;;;;;;5075089;28;20124;-75
2022/08/18 06:41:18;;;;;;;13.98;6.60;;;18.90;99.90;;;;;;5074329;28;20052;-74
2022/08/18 06:44:09;;;;;;;12.10;6.30;;;18.90;99.90;;;;;;5075545;28;20094;-75
2022/08/18 06:46:45;;;;;;;10.82;6.35;;;19.00;99.90;;;;;;5057622;28;20135;-74
2022/08/18 06:49:27;;;;;;;10.80;5.97;;;18.90;99.90;;;;;;5075324;28;20051;-75
2022/08/18 06:51:52;;;;;;;13.07;6.45;;;19.00;99.90;;;;;;5074237;28;20052;-74
2022/08/18 06:54:18;;;;;;;10.95;6.07;;;19.10;99.90;;;;;;5073823;28;20468;-74
2022/08/18 06:56:52;;;;;;;11.07;5.50;;;19.00;99.90;;;;;;5074435;28;20044;-75
2022/08/18 06:59:32;;;;;;;13.40;6.00;;;19.00;99.90;;;;;;5074662;28;20385;-75
2022/08/18 07:02:21;;;;;;;10.45;4.95;;;19.10;99.90;;;;;;5074433;28;20052;-75
2022/08/18 07:05:13;;;;;;;9.68;5.07;;;19.20;99.90;;;;;;5073218;28;20527;-75
2022/08/18 07:07:41;;;;;;;11.13;5.00;;;19.10;99.90;;;;;;5075013;28;20052;-74
2022/08/18 07:10:31;;;;;;;13.57;5.45;;;19.10;99.90;;;;;;5057351;28;20170;-75
2022/08/18 07:13:17;;;;;;;13.70;5.85;;;19.10;99.90;;;;;;5073765;28;20177;-76
2022/08/18 07:15:44;;;;;;;13.18;5.40;;;19.10;99.90;;;;;;5057012;28;20040;-75
2022/08/18 07:18:12;;;;;;;11.68;5.40;;;19.20;99.90;;;;;;5073540;28;20098;-76
2022/08/18 07:20:47;;;;;;;8.93;4.53;;;19.20;99.90;;;;;;5073193;28;20078;-74
2022/08/18 07:23:37;;;;;;;12.25;4.85;;;19.10;99.90;;;;;;5073303;28;20357;-75
2022/08/18 07:26:16;;;;;;;14.40;4.45;;;19.20;99.90;;;;;;5074710;28;20048;-76
2022/08/18 07:28:45;;;;;;;9.73;4.72;;;19.20;99.90;;;;;;5073717;28;20044;-76
2022/08/18 07:31:13;;;;;;;11.93;4.95;;;;;;;;;;5074379;28;20059;-74
2022/08/18 07:33:42;;;;;;;7.35;4.55;;;19.20;99.90;;;;;;5074108;28;20049;-74
2022/08/18 07:36:09;;;;;;;11.95;4.80;;;19.20;99.90;;;;;;5057485;28;20110;-74
2022/08/18 07:38:47;;;;;;;11.05;5.10;;;19.20;99.90;;;;;;5073070;28;20105;-75
2022/08/18 07:41:21;;;;;;;11.32;4.60;;;19.20;99.90;;;;;;5073335;28;20048;-76
2022/08/18 07:44:15;;;;;;;9.60;4.82;;;19.20;99.90;;;;;;5074111;28;20480;-73
2022/08/18 07:46:47;;;;;;;9.10;4.50;;;19.10;99.90;;;;;;5074802;28;20063;-77
2022/08/18 07:49:25;;;;;;;10.38;4.43;;;19.20;99.90;;;;;;5072767;28;20651;-76
2022/08/18 07:52:01;;;;;;;9.50;4.30;;;19.20;99.90;;;;;;5073972;28;20551;-76
2022/08/18 07:54:53;;;;;;;10.30;5.40;;;19.10;99.90;;;;;;5073808;28;20140;-74
2022/08/18 07:57:51;;;;;;;9.50;4.65;;;19.10;99.90;;;;;;5074448;28;20380;-76
2022/08/18 08:00:22;;;;;;;10.13;4.57;;;19.10;99.90;;;;;;5073881;28;20090;-76
2022/08/18 08:03:05;;;;;;;9.57;4.18;;;19.00;99.90;;;;;;5072770;28;20049;-76
2022/08/18 08:06:08;;;;;;;6.93;2.95;;;19.00;99.90;;;;;;5072460;28;20093;-75
2022/08/18 08:08:49;;;;;;;;;;;19.00;99.90;;;;;;5073299;28;20095;-76
2022/08/18 08:11:33;;;;;;;9.57;3.70;;;18.80;99.90;;;;;;5072988;28;20330;-75
2022/08/18 08:14:18;;;;;;;7.75;3.63;;;19.00;99.90;;;;;;5072568;28;20056;-77
2022/08/18 08:17:16;;;;;;;7.35;3.50;;;19.00;99.90;;;;;;5073657;28;20052;-76
2022/08/18 08:20:09;;;;;;;7.15;3.22;;;19.00;99.90;;;;;;5074336;28;20102;-76
2022/08/18 08:22:37;;;;;;;7.85;3.00;;;18.90;99.90;;;;;;5072807;28;20400;-74
2022/08/18 08:25:23;;;;;;;10.43;3.00;;;19.10;99.90;;;;;;5073654;28;20404;-76
2022/08/18 08:28:01;;;;;;;8.57;3.42;;;19.00;99.90;;;;;;5072630;28;20191;-76
2022/08/18 08:30:32;;;;;;;6.88;2.85;;;19.00;99.90;;;;;;5073374;28;20048;-75
2022/08/18 08:33:25;;;;;;;6.70;3.08;;;19.10;99.90;;;;;;5073497;28;20037;-74
2022/08/18 08:35:53;;;;;;;5.85;2.75;;;19.10;99.90;;;;;;5073455;28;20074;-76
2022/08/18 08:38:43;;;;;;;3.78;2.13;;;19.10;99.90;;;;;;5074188;28;20417;-75
2022/08/18 08:41:18;;;;;;;7.53;2.28;;;19.30;99.90;;;;;;5073371;28;20055;-73
2022/08/18 08:43:54;;;;;;;4.22;1.90;;;19.20;99.90;;;;;;5073915;28;20049;-72
2022/08/18 08:46:24;;;;;;;3.35;1.80;;;19.20;99.90;;;;;;5072814;28;20093;-78
2022/08/18 08:49:23;;;;;;;4.72;1.75;;;19.30;99.90;;;;;;5072848;28;20449;-79
2022/08/18 08:51:56;;;;;;;7.25;2.00;;;19.40;99.90;;;;;;5072102;28;20144;-79
2022/08/18 08:54:32;;;;;;;4.10;1.70;;;19.30;99.90;;;;;;5075244;28;20393;-76
2022/08/18 08:57:00;;;;;;;5.10;1.50;;;19.30;99.90;;;;;;5076036;28;20059;-80
2022/08/18 08:59:26;;;;;;;5.65;1.75;;;19.30;99.90;;;;;;5076597;28;20052;-77
2022/08/18 09:02:21;;;;;;;3.33;1.35;;;19.30;99.90;;;;;;5076081;28;20041;-79
2022/08/18 09:05:00;;;;;;;5.03;1.33;;;19.40;99.90;;;;;;5076180;28;20060;-79
2022/08/18 09:08:01;;;;;;;4.55;1.10;;;19.30;99.90;;;;;;5076285;28;20049;-75
2022/08/18 09:10:51;;;;;;;6.00;1.30;;;19.30;99.90;;;;;;5074811;28;20048;-80
2022/08/18 09:13:46;;;;;;;3.67;1.80;;;19.50;99.90;;;;;;5057716;28;20118;-80
2022/08/18 09:16:18;;;;;;;5.40;1.33;;;19.50;99.90;;;;;;5058823;28;20052;-80
2022/08/18 09:19:21;;;;;;;3.80;1.23;;;19.40;99.90;;;;;;5076404;28;20183;-80
2022/08/18 09:22:42;;;;;;;4.25;1.20;;;19.40;99.90;;;;;;5074779;28;20079;-79
2022/08/18 09:25:28;;;;;;;3.38;1.00;;;19.60;99.90;;;;;;5037086;28;20053;-77
2022/08/18 09:28:10;;;;;;;5.88;1.10;;;19.70;99.90;;;;;;5072666;28;20060;-80
2022/08/18 09:31:01;;;;;;;2.92;1.05;;;19.60;99.90;;;;;;5075793;28;20045;-81
2022/08/18 09:33:30;;;;;;;3.90;1.27;;;19.60;99.90;;;;;;5074239;28;20404;-79
2022/08/18 09:36:19;;;;;;;4.75;1.30;;;19.80;99.90;;;;;;5075391;28;20127;-79
2022/08/18 09:41:53;;;;;;;3.13;1.85;;;19.60;99.90;;;;;;5074258;28;20059;-79
2022/08/18 09:44:47;;;;;;;4.75;1.70;;;19.70;99.90;;;;;;5074166;28;20047;-79
2022/08/18 09:47:23;;;;;;;5.70;1.90;;;19.70;99.90;;;;;;5075344;28;20101;-78
2022/08/18 09:49:54;;;;;;;4.07;1.70;;;19.70;99.90;;;;;;5074006;28;20507;-79
2022/08/18 09:52:25;;;;;;;3.35;1.80;;;19.80;99.90;;;;;;5074268;28;20072;-79
2022/08/18 09:54:52;;;;;;;4.93;2.03;;;19.90;99.90;;;;;;5075006;28;20054;-79
2022/08/18 09:57:28;;;;;;;4.03;1.80;;;19.80;99.90;;;;;;5074462;28;20434;-77
2022/08/18 10:00:16;;;;;;;4.75;1.65;;;19.80;99.90;;;;;;5075961;28;20040;-78
2022/08/18 10:02:41;;;;;;;5.93;1.73;;;19.70;99.90;;;;;;5075388;28;20049;-76
2022/08/18 10:05:19;;;;;;;5.63;1.63;;;19.50;99.90;;;;;;5072610;28;20485;-77
2022/08/18 10:08:02;;;;;;;5.25;1.77;;;19.70;99.90;;;;;;5073988;28;20127;-79
2022/08/18 10:10:57;;;;;;;8.95;2.03;;;20.00;99.90;;;;;;5075820;28;20045;-78
2022/08/18 10:13:42;;;;;;;2.88;1.60;;;19.70;99.90;;;;;;5074777;28;20049;-78
2022/08/18 10:16:46;;;;;;;4.47;1.70;;;19.80;99.90;;;;;;5074794;28;20056;-78
2022/08/18 10:19:15;;;;;;;5.20;1.55;;;19.90;99.90;;;;;;5074372;28;20407;-78
2022/08/18 10:21:57;;;;;;;4.97;2.20;;;19.80;99.90;;;;;;5074150;28;20040;-79
2022/08/18 10:24:42;;;;;;;4.37;2.40;;;19.90;99.90;;;;;;5074960;28;20481;-79
2022/08/18 10:27:33;;;;;;;4.30;1.52;;;20.00;99.90;;;;;;5074327;28;20275;-77
2022/08/18 10:29:59;;;;;;;3.83;1.77;;;19.90;99.90;;;;;;5073957;28;20381;-78
2022/08/18 10:32:39;;;;;;;6.15;1.60;;;19.90;99.90;;;;;;5074363;28;20048;-78
2022/08/18 10:35:34;;;;;;;5.35;1.67;;;20.10;99.90;;;;;;5074600;28;20049;-79
2022/08/18 10:38:12;;;;;;;4.18;1.73;;;19.90;99.90;;;;;;5073445;28;20059;-78
2022/08/18 10:40:41;;;;;;;3.58;1.60;;;20.10;99.90;;;;;;5074825;28;20049;-77
2022/08/18 10:43:16;;;;;;;3.05;1.55;;;20.10;99.90;;;;;;5074945;28;20131;-77
2022/08/18 10:45:51;;;;;;;3.45;1.20;;;19.90;99.90;;;;;;5075036;28;20040;-79
2022/08/18 10:48:29;;;;;;;1.98;1.08;;;20.00;99.90;;;;;;5057491;28;20048;-78
2022/08/18 10:51:06;;;;;;;2.97;1.25;;;20.10;99.90;;;;;;5074710;28;20044;-77
2022/08/18 10:53:46;;;;;;;4.55;1.73;;;20.10;99.90;;;;;;5074066;28;20048;-77
2022/08/18 10:56:48;;;;;;;1.98;1.20;;;20.40;99.90;;;;;;5074753;28;20080;-77
2022/08/18 10:59:17;;;;;;;3.70;1.38;;;20.20;99.90;;;;;;5074901;28;20037;-77
2022/08/18 11:02:13;;;;;;;5.25;1.80;;;20.10;99.90;;;;;;5074874;28;20131;-78
2022/08/18 11:04:46;;;;;;;5.70;1.77;;;20.20;99.90;;;;;;5074395;28;20056;-78
2022/08/18 11:07:24;;;;;;;3.78;1.27;;;20.40;99.90;;;;;;5074666;28;20354;-78
2022/08/18 11:09:54;;;;;;;3.25;1.38;;;20.10;99.90;;;;;;5077394;28;20072;-76
2022/08/18 11:13:10;;;;;;;3.78;1.20;;;20.20;99.90;;;;;;5062864;28;20063;-77
2022/08/18 11:15:51;;;;;;;3.28;1.52;;;20.40;99.90;;;;;;5059134;28;20088;-77
2022/08/18 11:18:42;;;;;;;3.17;1.58;;;20.30;99.90;;;;;;5058044;28;20048;-76
2022/08/18 11:21:33;;;;;;;4.30;1.52;;;20.40;99.90;;;;;;5075140;28;20049;-76
2022/08/18 11:24:01;;;;;;;2.60;2.08;;;20.50;99.90;;;;;;5074079;28;20048;-77
2022/08/18 11:26:30;;;;;;;5.70;2.08;;;20.30;99.90;;;;;;5074085;28;20060;-77
2022/08/18 11:28:56;;;;;;;3.85;1.40;;;20.60;99.90;;;;;;5073162;28;20052;-78
2022/08/18 11:31:23;;;;;;;4.93;1.40;;;20.40;99.90;;;;;;5073258;28;20049;-79
2022/08/18 11:33:49;;;;;;;3.80;1.45;;;20.40;99.90;;;;;;5073655;28;20495;-75
2022/08/18 11:36:15;;;;;;;3.60;1.40;;;20.30;99.90;;;;;;5074998;28;20052;-76
2022/08/18 11:38:55;;;;;;;2.40;1.13;;;20.30;99.90;;;;;;5075218;28;20051;-76
2022/08/18 11:41:26;;;;;;;2.47;1.15;;;20.30;99.90;;;;;;5073339;28;20115;-78
2022/08/18 11:43:58;;;;;;;3.00;1.40;;;20.10;99.90;;;;;;5074468;28;20047;-78
2022/08/18 11:46:39;;;;;;;4.10;1.40;;;20.30;99.90;;;;;;5073984;28;20048;-79
2022/08/18 11:49:24;;;;;;;4.85;1.40;;;20.50;99.90;;;;;;5073744;28;20052;-78
2022/08/18 11:52:01;;;;;;;2.80;1.08;;;20.20;99.90;;;;;;5072566;28;20102;-77
2022/08/18 11:54:41;;;;;;;1.92;0.93;;;20.30;99.90;;;;;;5073724;28;20048;-77
2022/08/18 11:57:30;;;;;;;1.45;0.98;;;20.40;99.90;;;;;;5074344;28;20067;-77
2022/08/18 11:59:56;;;;;;;3.08;0.80;;;20.30;99.90;;;;;;5073726;28;20174;-79
2022/08/18 12:02:24;;;;;;;2.42;0.80;;;;;;;;;;5073738;28;20155;-78
2022/08/18 12:04:56;;;;;;;3.97;1.00;;;20.30;99.90;;;;;;5073253;28;20578;-78
2022/08/18 12:07:30;;;;;;;2.05;0.88;;;20.40;99.90;;;;;;5072894;28;20049;-80
2022/08/18 12:10:14;;;;;;;3.15;1.17;;;20.30;99.90;;;;;;5072491;28;20045;-79
2022/08/18 12:12:51;;;;;;;1.73;1.00;;;20.40;99.90;;;;;;5072711;28;20131;-80
2022/08/18 12:15:17;;;;;;;1.00;0.70;;;20.50;99.90;;;;;;5072318;28;20539;-80
2022/08/18 12:17:44;;;;;;;2.92;0.90;;;20.50;99.90;;;;;;5074226;28;20084;-80
2022/08/18 12:20:12;;;;;;;1.30;0.90;;;20.70;99.90;;;;;;5073541;28;20542;-79
2022/08/18 12:22:40;;;;;;;2.83;1.20;;;20.70;99.90;;;;;;5073425;28;20123;-77
2022/08/18 12:25:08;;;;;;;2.13;0.88;;;20.70;99.90;;;;;;5073984;28;20393;-79
2022/08/18 12:27:34;;;;;;;3.00;0.98;;;20.70;99.90;;;;;;5075596;28;20052;-80
2022/08/18 12:30:03;;;;;;;2.28;1.00;;;20.70;99.90;;;;;;5077785;28;20044;-79
2022/08/18 12:32:32;;;;;;;2.00;1.05;;;20.80;99.90;;;;;;5076383;28;20388;-79
2022/08/18 12:34:58;;;;;;;3.15;1.00;;;20.80;99.90;;;;;;5076369;28;20037;-78
2022/08/18 12:37:26;;;;;;;2.08;1.20;;;20.70;99.90;;;;;;5077404;28;20152;-78
2022/08/18 12:39:53;;;;;;;2.40;1.30;;;20.80;99.90;;;;;;5077861;28;20040;-79
2022/08/18 12:42:19;;;;;;;2.20;1.20;;;20.90;99.90;;;;;;5077249;28;20044;-74
2022/08/18 12:44:46;;;;;;;2.53;1.20;;;20.90;99.90;;;;;;5076322;28;20118;-74
2022/08/18 12:47:19;;;;;;;2.20;1.30;;;21.00;99.90;;;;;;5077205;28;20045;-75
2022/08/18 12:49:44;;;;;;;;;;;21.00;99.90;;;;;;5076333;28;20048;-74
2022/08/18 12:52:11;;;;;;;5.93;1.30;;;21.00;99.90;;;;;;5076804;28;19920;-74
2022/08/18 12:54:37;;;;;;;4.00;1.70;;;21.10;99.90;;;;;;5077103;28;20049;-74
2022/08/18 12:57:07;;;;;;;2.58;1.88;;;21.00;99.90;;;;;;5077071;28;20040;-74
2022/08/18 12:59:34;;;;;;;2.08;1.73;;;21.00;99.90;;;;;;5076944;28;20472;-73
2022/08/18 13:02:01;;;;;;;3.20;1.70;;;21.10;99.90;;;;;;5076628;28;20063;-74
2022/08/18 13:04:28;;;;;;;4.75;1.45;;;21.10;99.90;;;;;;5076721;28;20048;-73
2022/08/18 13:06:57;;;;;;;2.78;1.48;;;21.20;99.90;;;;;;5076225;28;20063;-73
2022/08/18 13:09:23;;;;;;;2.88;1.23;;;21.30;99.90;;;;;;5075597;28;20420;-75
2022/08/18 13:11:49;;;;;;;3.50;1.25;;;21.20;99.90;;;;;;5075588;28;20055;-74
2022/08/18 13:14:16;;;;;;;2.55;1.50;;;21.20;99.90;;;;;;5076060;28;20401;-74
2022/08/18 13:16:44;;;;;;;1.95;1.10;;;21.20;99.90;;;;;;5076584;28;20495;-74
2022/08/18 13:19:12;;;;;;;2.45;1.23;;;21.10;99.90;;;;;;5076458;28;20109;-75
2022/08/18 13:21:40;;;;;;;2.95;1.33;;;21.10;99.90;;;;;;5077192;28;20173;-73
2022/08/18 13:24:06;;;;;;;1.85;1.00;;;21.00;99.90;;;;;;5075300;28;20464;-74
2022/08/18 13:26:35;;;;;;;3.25;1.10;;;21.20;99.90;;;;;;5076526;28;20131;-74
2022/08/18 13:29:02;;;;;;;3.85;1.30;;;21.10;99.90;;;;;;5076295;28;20052;-74
2022/08/18 13:31:30;;;;;;;3.15;1.58;;;21.10;99.90;;;;;;5075655;28;20041;-74